createdAt,value
2023-01-21T00:02:16.186Z,47.15
2023-01-21T00:04:44.067Z,47.20
2023-01-21T00:07:10.640Z,47.24
2023-01-21T00:09:39.782Z,47.26
2023-01-21T00:12:06.501Z,47.07
2023-01-21T00:14:33.233Z,47.20
2023-01-21T00:17:02.241Z,46.88
2023-01-21T00:19:33.435Z,46.97
2023-01-21T00:22:00.138Z,46.76
2023-01-21T00:24:27.053Z,46.71
2023-01-21T00:27:00.404Z,46.51
2023-01-21T00:29:34.302Z,46.75
2023-01-21T00:32:03.484Z,46.69
2023-01-21T00:34:32.584Z,46.56
2023-01-21T00:37:02.041Z,46.78
2023-01-21T00:39:31.683Z,46.88
2023-01-21T00:41:58.354Z,46.88
2023-01-21T00:44:25.030Z,47.09
2023-01-21T00:46:53.859Z,46.76
2023-01-21T00:49:26.301Z,46.63
2023-01-21T00:51:55.957Z,47.05
2023-01-21T00:54:22.640Z,47.17
2023-01-21T00:56:49.218Z,47.07
2023-01-21T00:59:16.129Z,46.89
2023-01-21T01:01:42.980Z,47.04
2023-01-21T01:04:12.089Z,47.27
2023-01-21T01:06:38.694Z,47.26
2023-01-21T01:09:05.576Z,47.32
2023-01-21T01:11:32.192Z,47.26
2023-01-21T01:14:04.298Z,47.30
2023-01-21T01:16:36.499Z,47.21
2023-01-21T01:19:05.260Z,47.03
2023-01-21T01:21:37.212Z,47.12
2023-01-21T01:24:03.927Z,47.08
2023-01-21T01:26:30.575Z,46.71
2023-01-21T01:28:57.100Z,47.30
2023-01-21T01:31:23.672Z,46.88
2023-01-21T01:33:50.307Z,46.80
2023-01-21T01:36:18.950Z,46.96
2023-01-21T01:38:45.695Z,46.55
2023-01-21T01:41:16.927Z,46.75
2023-01-21T01:44:01.264Z,46.85
2023-01-21T01:46:32.740Z,47.19
2023-01-21T01:49:00.843Z,46.86
2023-01-21T01:51:31.398Z,47.32
2023-01-21T01:53:57.968Z,47.18
2023-01-21T01:56:24.465Z,47.17
2023-01-21T01:58:51.086Z,47.19
2023-01-21T02:01:17.682Z,47.08
2023-01-21T02:03:44.474Z,47.07
2023-01-21T02:06:14.582Z,47.05
2023-01-21T02:08:41.316Z,47.09
2023-01-21T02:11:18.720Z,47.04
2023-01-21T02:13:48.072Z,47.16
2023-01-21T02:16:24.635Z,47.17
2023-01-21T02:19:09.288Z,47.15
2023-01-21T02:22:00.697Z,47.08
2023-01-21T02:24:51.681Z,47.02
2023-01-21T02:27:43.505Z,47.06
2023-01-21T02:30:28.961Z,46.92
2023-01-21T02:33:22.858Z,46.93
2023-01-21T02:36:04.528Z,46.85
2023-01-21T02:38:46.295Z,46.84
2023-01-21T02:41:35.483Z,46.72
2023-01-21T02:44:11.902Z,46.70
2023-01-21T02:46:47.473Z,46.64
2023-01-21T02:49:34.140Z,46.66
2023-01-21T02:52:00.668Z,46.53
2023-01-21T02:54:39.048Z,46.99
2023-01-21T02:57:13.890Z,46.94
2023-01-21T02:59:40.679Z,47.07
2023-01-21T03:02:17.318Z,46.96
2023-01-21T03:05:03.837Z,47.11
2023-01-21T03:07:33.735Z,47.18
2023-01-21T03:10:10.953Z,47.17
2023-01-21T03:13:03.787Z,47.15
2023-01-21T03:15:57.777Z,47.24
2023-01-21T03:18:32.967Z,47.15
2023-01-21T03:21:21.768Z,47.10
2023-01-21T03:23:48.795Z,46.78
2023-01-21T03:26:18.030Z,47.48
2023-01-21T03:28:45.799Z,46.98
2023-01-21T03:31:20.890Z,47.02
2023-01-21T03:33:48.195Z,46.90
2023-01-21T03:36:35.375Z,46.53
2023-01-21T03:39:04.796Z,46.86
2023-01-21T03:41:33.996Z,46.88
2023-01-21T03:44:00.672Z,46.56
2023-01-21T03:46:27.082Z,46.83
2023-01-21T03:48:57.357Z,46.48
2023-01-21T03:51:27.703Z,46.74
2023-01-21T03:53:57.812Z,46.78
2023-01-21T03:56:25.253Z,46.84
2023-01-21T03:58:51.852Z,47.03
2023-01-21T04:01:18.452Z,47.10
2023-01-21T04:03:45.006Z,46.66
2023-01-21T04:06:15.332Z,46.98
2023-01-21T04:08:41.913Z,46.97
2023-01-21T04:11:08.421Z,47.06
2023-01-21T04:13:34.957Z,47.09
2023-01-21T04:16:01.544Z,47.09
2023-01-21T04:18:28.046Z,47.34
2023-01-21T04:20:54.631Z,47.24
2023-01-21T04:23:21.210Z,47.08
2023-01-21T04:25:48.672Z,46.98
2023-01-21T04:28:15.181Z,47.11
2023-01-21T04:30:41.678Z,47.13
2023-01-21T04:33:08.289Z,46.96
2023-01-21T04:35:38.449Z,47.05
2023-01-21T04:38:05.134Z,46.70
2023-01-21T04:40:31.637Z,46.54
2023-01-21T04:42:58.118Z,46.63
2023-01-21T04:45:24.637Z,46.73
2023-01-21T04:47:51.204Z,46.92
2023-01-21T04:50:18.307Z,46.64
2023-01-21T04:52:45.041Z,46.42
2023-01-21T04:55:11.728Z,46.78
2023-01-21T04:57:38.361Z,46.86
2023-01-21T05:00:05.589Z,46.97
2023-01-21T05:02:32.960Z,47.07
2023-01-21T05:04:59.459Z,46.90
2023-01-21T05:07:25.995Z,47.55
2023-01-21T05:09:52.496Z,47.49
2023-01-21T05:12:19.234Z,47.28
2023-01-21T05:14:45.840Z,47.07
2023-01-21T05:17:12.344Z,47.23
2023-01-21T05:19:38.856Z,47.02
2023-01-21T05:22:05.440Z,46.79
2023-01-21T05:24:31.917Z,46.92
2023-01-21T05:26:58.472Z,47.08
2023-01-21T05:29:25.009Z,47.10
2023-01-21T05:31:51.525Z,46.73
2023-01-21T05:34:18.092Z,46.87
2023-01-21T05:36:45.101Z,46.94
2023-01-21T05:39:11.605Z,46.57
2023-01-21T05:41:38.096Z,47.19
2023-01-21T05:44:04.701Z,46.85
2023-01-21T05:46:31.205Z,46.87
2023-01-21T05:48:57.775Z,46.81
2023-01-21T05:51:24.389Z,46.58
2023-01-21T05:53:50.949Z,46.95
2023-01-21T05:56:17.420Z,46.80
2023-01-21T05:58:43.947Z,46.76
2023-01-21T06:01:10.511Z,46.83
2023-01-21T06:03:38.194Z,47.06
2023-01-21T06:06:04.933Z,47.00
2023-01-21T06:08:31.439Z,46.90
2023-01-21T06:10:57.956Z,46.87
2023-01-21T06:13:24.594Z,47.02
2023-01-21T06:15:54.379Z,47.14
2023-01-21T06:18:20.941Z,46.91
2023-01-21T06:20:47.500Z,47.14
2023-01-21T06:23:13.988Z,47.42
2023-01-21T06:25:40.866Z,47.11
2023-01-21T06:28:07.384Z,46.97
2023-01-21T06:30:33.966Z,46.86
2023-01-21T06:33:00.522Z,46.94
2023-01-21T06:35:27.089Z,46.71
2023-01-21T06:37:53.616Z,46.73
2023-01-21T06:40:20.277Z,46.74
2023-01-21T06:42:47.457Z,46.66
2023-01-21T06:45:14.320Z,46.31
2023-01-21T06:47:44.064Z,46.52
2023-01-21T06:50:11.659Z,46.62
2023-01-21T06:52:38.199Z,46.77
2023-01-21T06:55:05.130Z,46.71
2023-01-21T06:57:31.682Z,46.09
2023-01-21T06:59:58.166Z,45.61
2023-01-21T07:02:24.748Z,45.81
2023-01-21T07:04:51.483Z,46.38
2023-01-21T07:07:18.033Z,45.83
2023-01-21T07:09:44.552Z,46.22
2023-01-21T07:12:11.098Z,46.45
2023-01-21T07:14:37.676Z,46.29
2023-01-21T07:17:04.161Z,46.34
2023-01-21T07:19:30.690Z,46.26
2023-01-21T07:21:57.205Z,46.73
2023-01-21T07:24:23.717Z,46.34
2023-01-21T07:26:50.288Z,46.80
2023-01-21T07:29:16.887Z,46.29
2023-01-21T07:31:43.498Z,46.36
2023-01-21T07:34:10.141Z,46.22
2023-01-21T07:36:36.663Z,45.85
2023-01-21T07:39:03.223Z,46.28
2023-01-21T07:41:29.745Z,46.16
2023-01-21T07:43:56.331Z,46.54
2023-01-21T07:46:23.149Z,46.26
2023-01-21T07:48:51.133Z,46.55
2023-01-21T07:51:21.000Z,45.73
2023-01-21T07:53:47.566Z,43.88
2023-01-21T07:56:14.952Z,42.28
2023-01-21T07:58:41.496Z,41.55
2023-01-21T08:01:08.306Z,39.71
2023-01-21T08:03:37.871Z,38.97
2023-01-21T08:06:05.362Z,37.96
2023-01-21T08:08:32.428Z,37.55
2023-01-21T08:10:58.944Z,36.96
2023-01-21T08:13:25.547Z,36.63
2023-01-21T08:15:52.867Z,36.35
2023-01-21T08:18:19.506Z,36.47
2023-01-21T08:20:45.985Z,37.13
2023-01-21T08:23:12.526Z,38.13
2023-01-21T08:25:39.028Z,38.46
2023-01-21T08:28:05.757Z,39.19
2023-01-21T08:30:32.337Z,40.01
2023-01-21T08:32:58.886Z,40.53
2023-01-21T08:35:25.418Z,41.25
2023-01-21T08:37:54.662Z,41.65
2023-01-21T08:40:21.164Z,42.54
2023-01-21T08:42:48.230Z,42.72
2023-01-21T08:45:15.519Z,42.85
2023-01-21T08:47:42.115Z,43.43
2023-01-21T08:50:09.753Z,44.05
2023-01-21T08:52:36.397Z,43.86
2023-01-21T08:55:02.928Z,44.28
2023-01-21T08:57:29.436Z,44.45
2023-01-21T08:59:55.950Z,43.62
2023-01-21T09:02:22.658Z,44.20
2023-01-21T09:04:50.555Z,44.36
2023-01-21T09:07:17.089Z,44.33
2023-01-21T09:09:43.645Z,44.60
2023-01-21T09:12:10.203Z,44.75
2023-01-21T09:14:36.782Z,44.86
2023-01-21T09:17:03.370Z,44.94
2023-01-21T09:19:29.894Z,44.85
2023-01-21T09:21:56.405Z,44.95
2023-01-21T09:24:23.717Z,45.41
2023-01-21T09:26:50.245Z,44.74
2023-01-21T09:29:16.816Z,44.89
2023-01-21T09:31:43.312Z,44.90
2023-01-21T09:34:10.804Z,45.00
2023-01-21T09:36:37.468Z,44.97
2023-01-21T09:39:04.046Z,45.04
2023-01-21T09:41:38.435Z,45.07
2023-01-21T09:44:32.719Z,45.09
2023-01-21T09:47:18.119Z,45.28
2023-01-21T09:49:50.320Z,45.22
2023-01-21T09:52:24.918Z,45.35
2023-01-21T09:54:51.472Z,45.29
2023-01-21T09:57:24.045Z,45.40
2023-01-21T10:00:05.693Z,45.26
2023-01-21T10:02:50.869Z,45.15
2023-01-21T10:05:32.759Z,45.31
2023-01-21T10:08:23.696Z,45.27
2023-01-21T10:11:15.094Z,45.55
2023-01-21T10:13:44.729Z,45.27
2023-01-21T10:16:31.368Z,45.35
2023-01-21T10:18:57.915Z,45.60
2023-01-21T10:21:51.820Z,45.53
2023-01-21T10:24:24.297Z,45.68
2023-01-21T10:26:51.337Z,45.60
2023-01-21T10:29:18.730Z,45.55
2023-01-21T10:31:50.021Z,45.85
2023-01-21T10:34:17.752Z,45.79
2023-01-21T10:36:50.648Z,45.75
2023-01-21T10:39:42.131Z,45.78
2023-01-21T10:42:08.584Z,45.57
2023-01-21T10:44:41.639Z,45.75
2023-01-21T10:47:23.237Z,45.74
2023-01-21T10:50:13.654Z,45.62
2023-01-21T10:52:52.269Z,45.67
2023-01-21T10:55:20.182Z,45.74
2023-01-21T10:58:00.139Z,45.88
2023-01-21T11:00:32.998Z,45.82
2023-01-21T11:03:05.790Z,45.95
2023-01-21T11:05:32.349Z,46.15
2023-01-21T11:07:58.867Z,45.96
2023-01-21T11:10:26.094Z,46.01
2023-01-21T11:12:55.951Z,45.82
2023-01-21T11:15:22.891Z,45.95
2023-01-21T11:17:56.315Z,46.11
2023-01-21T11:20:29.847Z,46.21
2023-01-21T11:22:56.449Z,46.19
2023-01-21T11:25:41.696Z,46.17
2023-01-21T11:28:25.335Z,46.15
2023-01-21T11:31:07.237Z,46.02
2023-01-21T11:33:33.908Z,46.09
2023-01-21T11:36:18.989Z,46.08
2023-01-21T11:38:47.359Z,46.32
2023-01-21T11:41:20.585Z,46.25
2023-01-21T11:43:55.009Z,46.27
2023-01-21T11:46:22.644Z,46.28
2023-01-21T11:48:49.460Z,46.41
2023-01-21T11:51:17.831Z,46.37
2023-01-21T11:53:46.561Z,46.51
2023-01-21T11:56:14.635Z,46.18
2023-01-21T11:58:41.177Z,46.14
2023-01-21T12:01:09.538Z,46.22
2023-01-21T12:04:05.660Z,46.45
2023-01-21T12:06:32.277Z,46.04
2023-01-21T12:09:02.403Z,46.41
2023-01-21T12:11:29.556Z,46.35
2023-01-21T12:14:01.953Z,46.26
2023-01-21T12:16:34.845Z,46.37
2023-01-21T12:19:19.562Z,46.32
2023-01-21T12:22:07.946Z,46.22
2023-01-21T12:24:46.523Z,46.28
2023-01-21T12:27:19.075Z,46.23
2023-01-21T12:30:07.201Z,46.10
2023-01-21T12:32:38.973Z,46.14
2023-01-21T12:35:33.099Z,46.13
2023-01-21T12:38:03.489Z,44.86
2023-01-21T12:41:07.665Z,44.70
2023-01-21T12:43:36.030Z,44.62
2023-01-21T12:46:11.865Z,42.67
2023-01-21T12:48:42.223Z,40.57
2023-01-21T12:51:11.228Z,40.48
2023-01-21T12:53:44.451Z,41.00
2023-01-21T12:56:34.121Z,41.89
2023-01-21T12:59:08.863Z,42.64
2023-01-21T13:01:57.540Z,42.98
2023-01-21T13:04:47.193Z,43.30
2023-01-21T13:07:38.397Z,43.73
2023-01-21T13:10:15.768Z,44.00
2023-01-21T13:12:43.787Z,44.18
2023-01-21T13:15:17.750Z,44.21
2023-01-21T13:17:47.435Z,44.44
2023-01-21T13:20:21.912Z,44.69
2023-01-21T13:23:20.790Z,44.80
2023-01-21T13:26:14.526Z,44.90
2023-01-21T13:29:18.684Z,45.12
2023-01-21T13:32:15.998Z,45.06
2023-01-21T13:35:09.432Z,45.13
2023-01-21T13:38:07.432Z,45.00
2023-01-21T13:40:52.811Z,45.19
2023-01-21T13:43:22.200Z,45.11
2023-01-21T13:46:03.980Z,45.31
2023-01-21T13:48:43.120Z,45.21
2023-01-21T13:51:31.185Z,45.30
2023-01-21T13:54:21.943Z,44.44
2023-01-21T13:57:13.054Z,41.96
2023-01-21T13:59:44.428Z,40.45
2023-01-21T14:02:16.318Z,40.43
2023-01-21T14:05:20.850Z,40.99
2023-01-21T14:07:50.912Z,41.87
2023-01-21T14:10:51.251Z,42.42
2023-01-21T14:13:40.859Z,42.76
2023-01-21T14:16:49.088Z,42.83
2023-01-21T14:19:18.379Z,43.09
2023-01-21T14:22:15.172Z,43.34
2023-01-21T14:24:46.660Z,43.33
2023-01-21T14:27:16.017Z,43.44
2023-01-21T14:30:04.651Z,43.41
2023-01-21T14:32:41.746Z,42.66
2023-01-21T14:35:18.848Z,41.96
2023-01-21T14:38:10.987Z,42.03
2023-01-21T14:40:45.088Z,42.55
2023-01-21T14:43:36.607Z,42.90
2023-01-21T14:46:21.750Z,43.24
2023-01-21T14:49:08.293Z,43.34
2023-01-21T14:51:42.710Z,43.55
2023-01-21T14:54:14.601Z,43.68
2023-01-21T14:56:41.144Z,43.49
2023-01-21T14:59:23.715Z,43.72
2023-01-21T15:01:51.377Z,44.05
2023-01-21T15:04:40.994Z,44.18
2023-01-21T15:07:17.464Z,44.13
2023-01-21T15:09:47.149Z,44.25
2023-01-21T15:12:32.491Z,44.46
2023-01-21T15:15:03.514Z,44.70
2023-01-21T15:17:46.185Z,44.73
2023-01-21T15:20:44.517Z,44.65
2023-01-21T15:23:19.156Z,44.80
2023-01-21T15:26:07.417Z,44.98
2023-01-21T15:28:43.799Z,44.84
2023-01-21T15:31:20.432Z,44.92
2023-01-21T15:33:46.989Z,45.01
2023-01-21T15:36:20.427Z,44.92
2023-01-21T15:38:47.082Z,45.08
2023-01-21T15:41:27.688Z,44.92
2023-01-21T15:44:19.160Z,45.21
2023-01-21T15:47:13.527Z,45.25
2023-01-21T15:49:59.705Z,45.15
2023-01-21T15:52:57.179Z,45.84
2023-01-21T15:55:47.838Z,46.49
2023-01-21T15:58:26.464Z,46.79
2023-01-21T16:01:19.314Z,47.23
2023-01-21T16:03:55.042Z,47.54
2023-01-21T16:06:30.504Z,47.64
2023-01-21T16:09:06.906Z,47.95
2023-01-21T16:11:48.525Z,47.56
2023-01-21T16:14:26.162Z,47.58
2023-01-21T16:17:17.443Z,47.47
2023-01-21T16:19:46.637Z,47.12
2023-01-21T16:22:14.866Z,47.16
2023-01-21T16:24:47.582Z,47.03
2023-01-21T16:27:19.852Z,47.15
2023-01-21T16:29:46.426Z,46.85
2023-01-21T16:32:17.656Z,47.05
2023-01-21T16:34:44.520Z,47.08
2023-01-21T16:37:18.969Z,47.05
2023-01-21T16:39:45.625Z,47.08
2023-01-21T16:42:33.998Z,47.17
2023-01-21T16:45:00.569Z,47.25
2023-01-21T16:47:35.597Z,47.13
2023-01-21T16:50:02.591Z,47.12
2023-01-21T16:52:29.938Z,47.48
2023-01-21T16:54:56.511Z,47.21
2023-01-21T16:57:31.611Z,46.94
2023-01-21T16:59:58.646Z,47.02
2023-01-21T17:02:28.478Z,47.23
2023-01-21T17:04:56.797Z,46.94
2023-01-21T17:07:30.401Z,47.19
2023-01-21T17:10:02.788Z,47.32
2023-01-21T17:12:29.469Z,47.53
2023-01-21T17:15:00.660Z,47.53
2023-01-21T17:17:30.082Z,47.65
2023-01-21T17:19:57.086Z,47.38
2023-01-21T17:22:23.720Z,47.62
2023-01-21T17:25:36.436Z,47.58
2023-01-21T17:28:24.707Z,47.62
2023-01-21T17:30:51.490Z,47.62
2023-01-21T17:33:30.384Z,47.71
2023-01-21T17:36:13.389Z,47.61
2023-01-21T17:38:44.432Z,47.92
2023-01-21T17:41:41.229Z,47.89
2023-01-21T17:44:16.511Z,48.38
2023-01-21T17:46:50.288Z,48.17
2023-01-21T17:49:18.468Z,48.26
2023-01-21T17:51:45.191Z,48.24
2023-01-21T17:54:18.245Z,48.23
2023-01-21T17:56:50.650Z,47.87
2023-01-21T17:59:37.604Z,47.73
2023-01-21T18:02:11.855Z,47.80
2023-01-21T18:04:38.727Z,47.73
2023-01-21T18:07:25.048Z,47.87
2023-01-21T18:09:51.868Z,47.92
2023-01-21T18:12:19.559Z,48.00
2023-01-21T18:14:46.825Z,47.91
2023-01-21T18:17:18.501Z,47.97
2023-01-21T18:19:45.080Z,48.16
2023-01-21T18:22:26.613Z,48.34
2023-01-21T18:24:53.133Z,48.24
2023-01-21T18:27:20.659Z,48.04
2023-01-21T18:29:47.918Z,48.52
2023-01-21T18:32:14.692Z,48.27
2023-01-21T18:34:41.338Z,48.31
2023-01-21T18:37:14.928Z,48.37
2023-01-21T18:39:41.476Z,48.15
2023-01-21T18:42:15.232Z,48.22
2023-01-21T18:44:41.816Z,48.35
2023-01-21T18:47:16.749Z,48.10
2023-01-21T18:49:43.331Z,48.13
2023-01-21T18:52:19.521Z,48.42
2023-01-21T18:54:46.070Z,48.55
2023-01-21T18:57:14.649Z,48.45
2023-01-21T18:59:41.160Z,48.57
2023-01-21T19:02:18.056Z,48.50
2023-01-21T19:04:44.829Z,48.64
2023-01-21T19:07:15.579Z,48.51
2023-01-21T19:09:45.998Z,48.74
2023-01-21T19:12:13.522Z,48.37
2023-01-21T19:14:40.559Z,48.40
2023-01-21T19:17:12.116Z,48.19
2023-01-21T19:19:38.691Z,48.40
2023-01-21T19:22:06.384Z,48.49
2023-01-21T19:24:32.922Z,48.54
2023-01-21T19:26:59.466Z,48.92
2023-01-21T19:29:28.382Z,48.76
2023-01-21T19:31:55.042Z,48.40
2023-01-21T19:34:24.980Z,48.78
2023-01-21T19:36:52.248Z,48.66
2023-01-21T19:39:25.424Z,48.64
2023-01-21T19:42:07.072Z,48.96
2023-01-21T19:44:34.406Z,49.24
2023-01-21T19:47:01.089Z,48.90
2023-01-21T19:49:27.707Z,48.49
2023-01-21T19:51:54.209Z,48.64
2023-01-21T19:54:20.723Z,48.88
2023-01-21T19:56:47.259Z,48.97
2023-01-21T19:59:15.022Z,49.00
2023-01-21T20:01:41.738Z,48.83
2023-01-21T20:04:08.964Z,48.90
2023-01-21T20:06:37.789Z,48.88
2023-01-21T20:09:04.632Z,48.81
2023-01-21T20:11:31.211Z,48.86
2023-01-21T20:13:57.722Z,48.72
2023-01-21T20:16:26.283Z,48.65
2023-01-21T20:18:55.255Z,48.84
2023-01-21T20:21:21.768Z,49.18
2023-01-21T20:23:48.321Z,48.82
2023-01-21T20:26:18.017Z,48.82
2023-01-21T20:28:46.896Z,48.72
2023-01-21T20:31:13.599Z,48.92
2023-01-21T20:33:41.167Z,49.15
2023-01-21T20:36:18.109Z,48.92
2023-01-21T20:38:44.653Z,48.67
2023-01-21T20:41:11.409Z,48.90
2023-01-21T20:43:37.969Z,49.22
2023-01-21T20:46:06.561Z,48.89
2023-01-21T20:48:38.591Z,48.81
2023-01-21T20:51:05.472Z,48.96
2023-01-21T20:53:32.061Z,49.05
2023-01-21T20:56:00.376Z,48.97
2023-01-21T20:58:28.067Z,48.76
2023-01-21T21:00:54.624Z,48.94
2023-01-21T21:03:21.187Z,49.02
2023-01-21T21:05:48.214Z,48.69
2023-01-21T21:08:18.751Z,48.61
2023-01-21T21:10:45.525Z,48.73
2023-01-21T21:13:12.733Z,48.90
2023-01-21T21:15:39.686Z,48.94
2023-01-21T21:18:06.477Z,49.01
2023-01-21T21:20:38.745Z,48.84
2023-01-21T21:23:06.278Z,48.95
2023-01-21T21:25:34.370Z,48.91
2023-01-21T21:28:00.945Z,48.94
2023-01-21T21:30:29.610Z,49.03
2023-01-21T21:32:57.412Z,48.92
2023-01-21T21:35:31.410Z,49.05
2023-01-21T21:37:59.861Z,48.81
2023-01-21T21:40:27.230Z,48.99
2023-01-21T21:43:14.320Z,48.45
2023-01-21T21:46:00.899Z,49.03
2023-01-21T21:48:39.566Z,48.82
2023-01-21T21:51:06.539Z,48.65
2023-01-21T21:53:33.187Z,49.01
2023-01-21T21:56:07.766Z,49.03
2023-01-21T21:58:34.360Z,48.32
2023-01-21T22:01:24.320Z,48.82
2023-01-21T22:03:51.118Z,48.80
2023-01-21T22:06:18.415Z,49.14
2023-01-21T22:08:45.036Z,49.05
2023-01-21T22:11:19.112Z,48.90
2023-01-21T22:13:50.127Z,48.90
2023-01-21T22:16:18.818Z,48.91
2023-01-21T22:18:45.495Z,48.69
2023-01-21T22:21:20.148Z,48.89
2023-01-21T22:23:47.086Z,49.01
2023-01-21T22:26:15.965Z,48.85
2023-01-21T22:28:42.991Z,48.89
2023-01-21T22:31:12.063Z,48.65
2023-01-21T22:33:38.828Z,48.68
2023-01-21T22:36:06.466Z,48.91
2023-01-21T22:38:33.675Z,48.84
2023-01-21T22:41:00.268Z,48.96
2023-01-21T22:43:27.025Z,49.37
2023-01-21T22:45:54.991Z,48.87
2023-01-21T22:48:21.918Z,48.67
2023-01-21T22:50:59.009Z,49.14
2023-01-21T22:53:25.653Z,48.64
2023-01-21T22:55:56.561Z,49.25
2023-01-21T22:58:23.717Z,49.07
2023-01-21T23:00:50.401Z,48.83
2023-01-21T23:03:17.054Z,48.80
2023-01-21T23:05:43.639Z,48.86
2023-01-21T23:08:10.636Z,49.02
2023-01-21T23:10:37.250Z,48.85
2023-01-21T23:13:03.743Z,49.01
2023-01-21T23:15:30.334Z,48.87
2023-01-21T23:17:56.938Z,49.33
2023-01-21T23:20:28.739Z,48.83
2023-01-21T23:22:56.447Z,48.78
2023-01-21T23:25:23.050Z,49.04
2023-01-21T23:27:49.686Z,48.92
2023-01-21T23:30:16.876Z,49.04
2023-01-21T23:32:43.561Z,48.82
2023-01-21T23:35:10.131Z,49.22
2023-01-21T23:37:37.469Z,49.34
2023-01-21T23:40:05.286Z,48.89
2023-01-21T23:42:32.229Z,48.90
2023-01-21T23:44:58.826Z,48.99
2023-01-21T23:47:25.396Z,49.27
2023-01-21T23:49:51.986Z,48.99
2023-01-21T23:52:18.539Z,48.81
2023-01-21T23:54:45.538Z,48.60
2023-01-21T23:57:12.166Z,49.26
2023-01-21T23:59:38.812Z,49.22
